sensor_id;sensor_type;location;lat;lon;timestamp;temperature;humidity
57242;DHT22;43095;53.302;5.786;2023-11-22T00:01:52;3.50;99.90
57242;DHT22;43095;53.302;5.786;2023-11-22T00:04:20;3.50;99.90
57242;DHT22;43095;53.302;5.786;2023-11-22T00:06:47;3.50;99.90
57242;DHT22;43095;53.302;5.786;2023-11-22T00:09:14;3.50;99.90
57242;DHT22;43095;53.302;5.786;2023-11-22T00:11:41;3.50;99.90
57242;DHT22;43095;53.302;5.786;2023-11-22T00:14:08;3.50;99.90
57242;DHT22;43095;53.302;5.786;2023-11-22T00:16:35;3.40;99.90
57242;DHT22;43095;53.302;5.786;2023-11-22T00:19:05;3.30;99.90
57242;DHT22;43095;53.302;5.786;2023-11-22T00:21:33;3.30;99.90
57242;DHT22;43095;53.302;5.786;2023-11-22T00:24:00;3.30;99.90
57242;DHT22;43095;53.302;5.786;2023-11-22T00:26:27;3.30;99.90
57242;DHT22;43095;53.302;5.786;2023-11-22T00:28:59;3.30;99.90
57242;DHT22;43095;53.302;5.786;2023-11-22T00:31:27;3.30;99.90
57242;DHT22;43095;53.302;5.786;2023-11-22T00:33:54;3.40;99.90
57242;DHT22;43095;53.302;5.786;2023-11-22T00:36:22;3.50;99.90
57242;DHT22;43095;53.302;5.786;2023-11-22T00:38:49;3.50;99.90
57242;DHT22;43095;53.302;5.786;2023-11-22T00:41:16;3.50;99.90
57242;DHT22;43095;53.302;5.786;2023-11-22T00:43:44;3.50;99.90
57242;DHT22;43095;53.302;5.786;2023-11-22T00:46:11;3.50;99.90
57242;DHT22;43095;53.302;5.786;2023-11-22T00:48:38;3.50;99.90
57242;DHT22;43095;53.302;5.786;2023-11-22T00:51:05;3.50;99.90
57242;DHT22;43095;53.302;5.786;2023-11-22T00:53:35;3.50;99.90
57242;DHT22;43095;53.302;5.786;2023-11-22T00:56:04;3.50;99.90
57242;DHT22;43095;53.302;5.786;2023-11-22T00:58:33;3.40;99.90
57242;DHT22;43095;53.302;5.786;2023-11-22T01:01:00;3.50;99.90
57242;DHT22;43095;53.302;5.786;2023-11-22T01:03:27;3.40;99.90
57242;DHT22;43095;53.302;5.786;2023-11-22T01:05:54;3.40;99.90
57242;DHT22;43095;53.302;5.786;2023-11-22T01:08:22;3.30;99.90
57242;DHT22;43095;53.302;5.786;2023-11-22T01:10:50;3.30;99.90
57242;DHT22;43095;53.302;5.786;2023-11-22T01:13:17;3.30;99.90
57242;DHT22;43095;53.302;5.786;2023-11-22T01:15:44;3.30;99.90
57242;DHT22;43095;53.302;5.786;2023-11-22T01:18:11;3.30;99.90
57242;DHT22;43095;53.302;5.786;2023-11-22T01:20:39;3.30;99.90
57242;DHT22;43095;53.302;5.786;2023-11-22T01:23:06;3.30;99.90
57242;DHT22;43095;53.302;5.786;2023-11-22T01:25:33;3.30;99.90
57242;DHT22;43095;53.302;5.786;2023-11-22T01:28:01;3.30;99.90
57242;DHT22;43095;53.302;5.786;2023-11-22T01:30:28;3.30;99.90
57242;DHT22;43095;53.302;5.786;2023-11-22T01:32:55;3.30;99.90
57242;DHT22;43095;53.302;5.786;2023-11-22T01:35:23;3.30;99.90
57242;DHT22;43095;53.302;5.786;2023-11-22T01:37:50;3.30;99.90
57242;DHT22;43095;53.302;5.786;2023-11-22T01:40:18;3.30;99.90
57242;DHT22;43095;53.302;5.786;2023-11-22T01:42:46;3.40;99.90
57242;DHT22;43095;53.302;5.786;2023-11-22T01:45:14;3.50;99.90
57242;DHT22;43095;53.302;5.786;2023-11-22T01:47:42;3.50;99.90
57242;DHT22;43095;53.302;5.786;2023-11-22T01:50:10;3.50;99.90
57242;DHT22;43095;53.302;5.786;2023-11-22T01:52:39;3.50;99.90
57242;DHT22;43095;53.302;5.786;2023-11-22T01:55:06;3.50;99.90
57242;DHT22;43095;53.302;5.786;2023-11-22T01:57:36;3.50;99.90
57242;DHT22;43095;53.302;5.786;2023-11-22T02:00:05;3.50;99.90
57242;DHT22;43095;53.302;5.786;2023-11-22T02:02:41;3.50;99.90
57242;DHT22;43095;53.302;5.786;2023-11-22T02:05:24;3.50;99.90
57242;DHT22;43095;53.302;5.786;2023-11-22T02:07:54;3.60;99.90
57242;DHT22;43095;53.302;5.786;2023-11-22T02:10:31;3.60;99.90
57242;DHT22;43095;53.302;5.786;2023-11-22T02:13:00;3.60;99.90
57242;DHT22;43095;53.302;5.786;2023-11-22T02:15:31;3.50;99.90
57242;DHT22;43095;53.302;5.786;2023-11-22T02:17:58;3.60;99.90
57242;DHT22;43095;53.302;5.786;2023-11-22T02:20:37;3.60;99.90
57242;DHT22;43095;53.302;5.786;2023-11-22T02:23:09;3.60;99.90
57242;DHT22;43095;53.302;5.786;2023-11-22T02:25:37;3.60;99.90
57242;DHT22;43095;53.302;5.786;2023-11-22T02:28:04;3.60;99.90
57242;DHT22;43095;53.302;5.786;2023-11-22T02:30:32;3.60;99.90
57242;DHT22;43095;53.302;5.786;2023-11-22T02:32:59;3.60;99.90
57242;DHT22;43095;53.302;5.786;2023-11-22T02:35:26;3.50;99.90
57242;DHT22;43095;53.302;5.786;2023-11-22T02:37:57;3.50;99.90
57242;DHT22;43095;53.302;5.786;2023-11-22T02:40:24;3.50;99.90
57242;DHT22;43095;53.302;5.786;2023-11-22T02:42:53;3.50;99.90
57242;DHT22;43095;53.302;5.786;2023-11-22T02:45:25;3.50;99.90
57242;DHT22;43095;53.302;5.786;2023-11-22T02:47:53;3.50;99.90
57242;DHT22;43095;53.302;5.786;2023-11-22T02:50:20;3.50;99.90
57242;DHT22;43095;53.302;5.786;2023-11-22T02:52:48;3.50;99.90
57242;DHT22;43095;53.302;5.786;2023-11-22T02:55:16;3.50;99.90
57242;DHT22;43095;53.302;5.786;2023-11-22T02:57:45;3.50;99.90
57242;DHT22;43095;53.302;5.786;2023-11-22T03:00:13;3.50;99.90
57242;DHT22;43095;53.302;5.786;2023-11-22T03:02:41;3.50;99.90
57242;DHT22;43095;53.302;5.786;2023-11-22T03:05:09;3.50;99.90
57242;DHT22;43095;53.302;5.786;2023-11-22T03:07:37;3.50;99.90
57242;DHT22;43095;53.302;5.786;2023-11-22T03:10:09;3.40;99.90
57242;DHT22;43095;53.302;5.786;2023-11-22T03:12:37;3.40;99.90
57242;DHT22;43095;53.302;5.786;2023-11-22T03:15:05;3.40;99.90
57242;DHT22;43095;53.302;5.786;2023-11-22T03:17:32;3.30;99.90
57242;DHT22;43095;53.302;5.786;2023-11-22T03:20:03;3.40;99.90
57242;DHT22;43095;53.302;5.786;2023-11-22T03:22:30;3.40;99.90
57242;DHT22;43095;53.302;5.786;2023-11-22T03:25:04;3.40;99.90
57242;DHT22;43095;53.302;5.786;2023-11-22T03:27:32;3.30;99.90
57242;DHT22;43095;53.302;5.786;2023-11-22T03:29:59;3.30;99.90
57242;DHT22;43095;53.302;5.786;2023-11-22T03:32:27;3.30;99.90
57242;DHT22;43095;53.302;5.786;2023-11-22T03:34:56;3.30;99.90
57242;DHT22;43095;53.302;5.786;2023-11-22T03:37:26;3.30;99.90
57242;DHT22;43095;53.302;5.786;2023-11-22T03:39:53;3.30;99.90
57242;DHT22;43095;53.302;5.786;2023-11-22T03:42:20;3.30;99.90
57242;DHT22;43095;53.302;5.786;2023-11-22T03:44:49;3.30;99.90
57242;DHT22;43095;53.302;5.786;2023-11-22T03:47:16;3.30;99.90
57242;DHT22;43095;53.302;5.786;2023-11-22T03:49:48;3.30;99.90
57242;DHT22;43095;53.302;5.786;2023-11-22T03:52:15;3.20;99.90
57242;DHT22;43095;53.302;5.786;2023-11-22T03:54:42;3.20;99.90
57242;DHT22;43095;53.302;5.786;2023-11-22T03:57:09;3.10;99.90
57242;DHT22;43095;53.302;5.786;2023-11-22T03:59:40;3.10;99.90
57242;DHT22;43095;53.302;5.786;2023-11-22T04:02:10;3.10;99.90
57242;DHT22;43095;53.302;5.786;2023-11-22T04:04:37;3.10;99.90
57242;DHT22;43095;53.302;5.786;2023-11-22T04:07:08;3.00;99.90
57242;DHT22;43095;53.302;5.786;2023-11-22T04:09:35;3.00;99.90
57242;DHT22;43095;53.302;5.786;2023-11-22T04:12:02;3.00;99.90
57242;DHT22;43095;53.302;5.786;2023-11-22T04:14:31;3.00;99.90
57242;DHT22;43095;53.302;5.786;2023-11-22T04:16:58;2.90;99.90
57242;DHT22;43095;53.302;5.786;2023-11-22T04:19:26;3.00;99.90
57242;DHT22;43095;53.302;5.786;2023-11-22T04:21:54;3.00;99.90
57242;DHT22;43095;53.302;5.786;2023-11-22T04:24:21;3.00;99.90
57242;DHT22;43095;53.302;5.786;2023-11-22T04:26:48;3.00;99.90
57242;DHT22;43095;53.302;5.786;2023-11-22T04:29:16;3.00;99.90
57242;DHT22;43095;53.302;5.786;2023-11-22T04:31:44;3.00;99.90
57242;DHT22;43095;53.302;5.786;2023-11-22T04:34:11;3.00;99.90
57242;DHT22;43095;53.302;5.786;2023-11-22T04:36:38;3.00;99.90
57242;DHT22;43095;53.302;5.786;2023-11-22T04:39:05;3.00;99.90
57242;DHT22;43095;53.302;5.786;2023-11-22T04:41:34;3.00;99.90
57242;DHT22;43095;53.302;5.786;2023-11-22T04:44:02;3.00;99.90
57242;DHT22;43095;53.302;5.786;2023-11-22T04:46:29;3.00;99.90
57242;DHT22;43095;53.302;5.786;2023-11-22T04:48:57;3.00;99.90
57242;DHT22;43095;53.302;5.786;2023-11-22T04:51:25;3.00;99.90
57242;DHT22;43095;53.302;5.786;2023-11-22T04:53:52;3.00;99.90
57242;DHT22;43095;53.302;5.786;2023-11-22T04:56:21;3.00;99.90
57242;DHT22;43095;53.302;5.786;2023-11-22T04:58:51;3.00;99.90
57242;DHT22;43095;53.302;5.786;2023-11-22T05:01:21;3.00;99.90
57242;DHT22;43095;53.302;5.786;2023-11-22T05:03:50;3.00;99.90
57242;DHT22;43095;53.302;5.786;2023-11-22T05:06:17;3.10;99.90
57242;DHT22;43095;53.302;5.786;2023-11-22T05:08:44;3.10;99.90
57242;DHT22;43095;53.302;5.786;2023-11-22T05:11:19;3.10;99.90
57242;DHT22;43095;53.302;5.786;2023-11-22T05:13:46;3.10;99.90
57242;DHT22;43095;53.302;5.786;2023-11-22T05:16:13;3.10;99.90
57242;DHT22;43095;53.302;5.786;2023-11-22T05:18:43;3.10;99.90
57242;DHT22;43095;53.302;5.786;2023-11-22T05:21:19;3.10;99.90
57242;DHT22;43095;53.302;5.786;2023-11-22T05:23:54;3.10;99.90
57242;DHT22;43095;53.302;5.786;2023-11-22T05:26:21;3.10;99.90
57242;DHT22;43095;53.302;5.786;2023-11-22T05:28:50;3.10;99.90
57242;DHT22;43095;53.302;5.786;2023-11-22T05:31:23;3.10;99.90
57242;DHT22;43095;53.302;5.786;2023-11-22T05:33:51;3.10;99.90
57242;DHT22;43095;53.302;5.786;2023-11-22T05:36:21;3.10;99.90
57242;DHT22;43095;53.302;5.786;2023-11-22T05:38:48;3.00;99.90
57242;DHT22;43095;53.302;5.786;2023-11-22T05:41:16;3.10;99.90
57242;DHT22;43095;53.302;5.786;2023-11-22T05:43:46;3.10;99.90
57242;DHT22;43095;53.302;5.786;2023-11-22T05:46:21;3.10;99.90
57242;DHT22;43095;53.302;5.786;2023-11-22T05:48:54;3.00;99.90
57242;DHT22;43095;53.302;5.786;2023-11-22T05:51:22;3.00;99.90
57242;DHT22;43095;53.302;5.786;2023-11-22T05:53:49;3.00;99.90
57242;DHT22;43095;53.302;5.786;2023-11-22T05:56:16;3.00;99.90
57242;DHT22;43095;53.302;5.786;2023-11-22T05:58:44;2.90;99.90
57242;DHT22;43095;53.302;5.786;2023-11-22T06:01:13;3.00;99.90
57242;DHT22;43095;53.302;5.786;2023-11-22T06:03:42;2.90;99.90
57242;DHT22;43095;53.302;5.786;2023-11-22T06:06:09;2.90;99.90
57242;DHT22;43095;53.302;5.786;2023-11-22T06:08:37;2.90;99.90
57242;DHT22;43095;53.302;5.786;2023-11-22T06:11:18;2.90;99.90
57242;DHT22;43095;53.302;5.786;2023-11-22T06:13:48;2.90;99.90
57242;DHT22;43095;53.302;5.786;2023-11-22T06:16:16;2.90;99.90
57242;DHT22;43095;53.302;5.786;2023-11-22T06:18:45;2.90;99.90
57242;DHT22;43095;53.302;5.786;2023-11-22T06:21:13;2.90;99.90
57242;DHT22;43095;53.302;5.786;2023-11-22T06:23:42;2.90;99.90
57242;DHT22;43095;53.302;5.786;2023-11-22T06:26:10;2.90;99.90
57242;DHT22;43095;53.302;5.786;2023-11-22T06:28:39;2.90;99.90
57242;DHT22;43095;53.302;5.786;2023-11-22T06:31:11;2.90;99.90
57242;DHT22;43095;53.302;5.786;2023-11-22T06:33:42;2.90;99.90
57242;DHT22;43095;53.302;5.786;2023-11-22T06:36:10;2.80;99.90
57242;DHT22;43095;53.302;5.786;2023-11-22T06:38:48;2.80;99.90
57242;DHT22;43095;53.302;5.786;2023-11-22T06:41:15;2.80;99.90
57242;DHT22;43095;53.302;5.786;2023-11-22T06:43:44;2.80;99.90
57242;DHT22;43095;53.302;5.786;2023-11-22T06:46:11;2.80;99.90
57242;DHT22;43095;53.302;5.786;2023-11-22T06:48:39;2.80;99.90
57242;DHT22;43095;53.302;5.786;2023-11-22T06:51:06;2.80;99.90
57242;DHT22;43095;53.302;5.786;2023-11-22T06:53:34;2.80;99.90
57242;DHT22;43095;53.302;5.786;2023-11-22T06:56:01;2.70;99.90
57242;DHT22;43095;53.302;5.786;2023-11-22T06:58:30;2.70;99.90
57242;DHT22;43095;53.302;5.786;2023-11-22T07:00:57;2.70;99.90
57242;DHT22;43095;53.302;5.786;2023-11-22T07:03:24;2.70;99.90
57242;DHT22;43095;53.302;5.786;2023-11-22T07:05:54;2.70;99.90
57242;DHT22;43095;53.302;5.786;2023-11-22T07:08:21;2.70;99.90
57242;DHT22;43095;53.302;5.786;2023-11-22T07:10:49;2.70;99.90
57242;DHT22;43095;53.302;5.786;2023-11-22T07:13:17;2.60;99.90
57242;DHT22;43095;53.302;5.786;2023-11-22T07:15:45;2.60;99.90
57242;DHT22;43095;53.302;5.786;2023-11-22T07:18:12;2.60;99.90
57242;DHT22;43095;53.302;5.786;2023-11-22T07:20:41;2.70;99.90
57242;DHT22;43095;53.302;5.786;2023-11-22T07:23:09;2.60;99.90
57242;DHT22;43095;53.302;5.786;2023-11-22T07:25:40;2.60;99.90
57242;DHT22;43095;53.302;5.786;2023-11-22T07:28:08;2.60;99.90
57242;DHT22;43095;53.302;5.786;2023-11-22T07:30:35;2.60;99.90
57242;DHT22;43095;53.302;5.786;2023-11-22T07:33:05;2.60;99.90
57242;DHT22;43095;53.302;5.786;2023-11-22T07:35:33;2.60;99.90
57242;DHT22;43095;53.302;5.786;2023-11-22T07:38:01;2.70;99.90
57242;DHT22;43095;53.302;5.786;2023-11-22T07:40:30;2.70;99.90
57242;DHT22;43095;53.302;5.786;2023-11-22T07:42:57;2.70;99.90
57242;DHT22;43095;53.302;5.786;2023-11-22T07:45:24;2.70;99.90
57242;DHT22;43095;53.302;5.786;2023-11-22T07:47:51;2.70;99.90
57242;DHT22;43095;53.302;5.786;2023-11-22T07:50:20;2.80;99.90
57242;DHT22;43095;53.302;5.786;2023-11-22T07:52:49;2.80;99.90
57242;DHT22;43095;53.302;5.786;2023-11-22T07:55:17;2.80;99.90
57242;DHT22;43095;53.302;5.786;2023-11-22T07:57:45;2.80;99.90
57242;DHT22;43095;53.302;5.786;2023-11-22T08:00:12;2.90;99.90
57242;DHT22;43095;53.302;5.786;2023-11-22T08:02:40;2.90;99.90
57242;DHT22;43095;53.302;5.786;2023-11-22T08:05:10;2.90;99.90
57242;DHT22;43095;53.302;5.786;2023-11-22T08:07:39;3.00;99.90
57242;DHT22;43095;53.302;5.786;2023-11-22T08:10:08;3.00;99.90
57242;DHT22;43095;53.302;5.786;2023-11-22T08:12:49;3.00;99.90
57242;DHT22;43095;53.302;5.786;2023-11-22T08:15:17;3.00;99.90
57242;DHT22;43095;53.302;5.786;2023-11-22T08:17:46;3.00;99.90
57242;DHT22;43095;53.302;5.786;2023-11-22T08:20:14;3.00;99.90
57242;DHT22;43095;53.302;5.786;2023-11-22T08:22:45;3.00;99.90
57242;DHT22;43095;53.302;5.786;2023-11-22T08:25:17;3.00;99.90
57242;DHT22;43095;53.302;5.786;2023-11-22T08:27:45;3.00;99.90
57242;DHT22;43095;53.302;5.786;2023-11-22T08:30:15;3.00;99.90
57242;DHT22;43095;53.302;5.786;2023-11-22T08:32:45;3.10;99.90
57242;DHT22;43095;53.302;5.786;2023-11-22T08:35:22;3.10;99.90
57242;DHT22;43095;53.302;5.786;2023-11-22T08:37:50;3.10;99.90
57242;DHT22;43095;53.302;5.786;2023-11-22T08:40:18;3.10;99.90
57242;DHT22;43095;53.302;5.786;2023-11-22T08:42:48;3.10;99.90
57242;DHT22;43095;53.302;5.786;2023-11-22T08:45:18;3.10;99.90
57242;DHT22;43095;53.302;5.786;2023-11-22T08:47:47;3.10;99.90
57242;DHT22;43095;53.302;5.786;2023-11-22T08:50:16;3.20;99.90
57242;DHT22;43095;53.302;5.786;2023-11-22T08:52:44;3.20;99.90
57242;DHT22;43095;53.302;5.786;2023-11-22T08:55:12;3.30;99.90
57242;DHT22;43095;53.302;5.786;2023-11-22T08:57:42;3.30;99.90
57242;DHT22;43095;53.302;5.786;2023-11-22T09:00:09;3.30;99.90
57242;DHT22;43095;53.302;5.786;2023-11-22T09:02:38;3.30;99.90
57242;DHT22;43095;53.302;5.786;2023-11-22T09:05:07;3.30;99.90
57242;DHT22;43095;53.302;5.786;2023-11-22T09:07:40;3.30;99.90
57242;DHT22;43095;53.302;5.786;2023-11-22T09:10:08;3.40;99.90
57242;DHT22;43095;53.302;5.786;2023-11-22T09:12:40;3.40;99.90
57242;DHT22;43095;53.302;5.786;2023-11-22T09:15:10;3.40;99.90
57242;DHT22;43095;53.302;5.786;2023-11-22T09:17:43;3.40;99.90
57242;DHT22;43095;53.302;5.786;2023-11-22T09:20:14;3.50;99.90
57242;DHT22;43095;53.302;5.786;2023-11-22T09:22:50;3.50;99.90
57242;DHT22;43095;53.302;5.786;2023-11-22T09:25:27;3.50;99.90
57242;DHT22;43095;53.302;5.786;2023-11-22T09:27:57;3.50;99.90
57242;DHT22;43095;53.302;5.786;2023-11-22T09:30:29;3.50;99.90
57242;DHT22;43095;53.302;5.786;2023-11-22T09:33:14;3.60;99.90
57242;DHT22;43095;53.302;5.786;2023-11-22T09:35:44;3.60;99.90
57242;DHT22;43095;53.302;5.786;2023-11-22T09:38:13;3.60;99.90
57242;DHT22;43095;53.302;5.786;2023-11-22T09:40:48;3.70;99.90
57242;DHT22;43095;53.302;5.786;2023-11-22T09:43:23;3.70;99.90
57242;DHT22;43095;53.302;5.786;2023-11-22T09:45:52;3.70;99.90
57242;DHT22;43095;53.302;5.786;2023-11-22T09:48:24;3.70;99.90
57242;DHT22;43095;53.302;5.786;2023-11-22T09:54:04;3.90;99.90
57242;DHT22;43095;53.302;5.786;2023-11-22T09:56:34;3.90;99.90
57242;DHT22;43095;53.302;5.786;2023-11-22T09:59:04;4.00;99.90
57242;DHT22;43095;53.302;5.786;2023-11-22T10:01:35;4.00;99.90
57242;DHT22;43095;53.302;5.786;2023-11-22T10:04:05;4.00;99.90
57242;DHT22;43095;53.302;5.786;2023-11-22T10:06:35;4.10;99.90
57242;DHT22;43095;53.302;5.786;2023-11-22T10:09:03;4.10;99.90
57242;DHT22;43095;53.302;5.786;2023-11-22T10:11:35;4.20;99.90
57242;DHT22;43095;53.302;5.786;2023-11-22T10:14:07;4.20;99.90
57242;DHT22;43095;53.302;5.786;2023-11-22T10:16:37;4.20;99.90
57242;DHT22;43095;53.302;5.786;2023-11-22T10:19:10;4.30;99.90
57242;DHT22;43095;53.302;5.786;2023-11-22T10:21:40;4.30;99.90
57242;DHT22;43095;53.302;5.786;2023-11-22T10:24:08;4.40;99.90
57242;DHT22;43095;53.302;5.786;2023-11-22T11:45:29;5.30;99.90
57242;DHT22;43095;53.302;5.786;2023-11-22T11:47:57;5.40;99.90
57242;DHT22;43095;53.302;5.786;2023-11-22T11:50:26;5.50;99.90
57242;DHT22;43095;53.302;5.786;2023-11-22T11:52:53;5.50;99.90
57242;DHT22;43095;53.302;5.786;2023-11-22T11:55:20;5.50;99.90
57242;DHT22;43095;53.302;5.786;2023-11-22T11:57:47;5.50;99.90
57242;DHT22;43095;53.302;5.786;2023-11-22T12:00:15;5.50;99.90
57242;DHT22;43095;53.302;5.786;2023-11-22T12:02:43;5.50;99.90
57242;DHT22;43095;53.302;5.786;2023-11-22T12:05:10;5.50;99.90
57242;DHT22;43095;53.302;5.786;2023-11-22T12:07:37;5.50;99.90
57242;DHT22;43095;53.302;5.786;2023-11-22T12:10:05;5.50;99.90
57242;DHT22;43095;53.302;5.786;2023-11-22T12:12:36;5.50;99.90
57242;DHT22;43095;53.302;5.786;2023-11-22T12:15:05;5.50;99.90
57242;DHT22;43095;53.302;5.786;2023-11-22T12:17:36;5.50;99.90
57242;DHT22;43095;53.302;5.786;2023-11-22T12:20:15;5.50;99.80
57242;DHT22;43095;53.302;5.786;2023-11-22T12:22:47;5.50;99.80
57242;DHT22;43095;53.302;5.786;2023-11-22T12:25:14;5.40;99.70
57242;DHT22;43095;53.302;5.786;2023-11-22T12:27:42;5.50;99.70
57242;DHT22;43095;53.302;5.786;2023-11-22T12:30:36;5.40;99.50
57242;DHT22;43095;53.302;5.786;2023-11-22T12:33:08;5.40;99.30
57242;DHT22;43095;53.302;5.786;2023-11-22T12:35:37;5.40;99.20
57242;DHT22;43095;53.302;5.786;2023-11-22T12:38:05;5.30;99.20
57242;DHT22;43095;53.302;5.786;2023-11-22T12:40:34;5.30;99.10
57242;DHT22;43095;53.302;5.786;2023-11-22T12:43:03;5.30;99.00
57242;DHT22;43095;53.302;5.786;2023-11-22T12:45:31;5.30;98.90
57242;DHT22;43095;53.302;5.786;2023-11-22T12:48:23;5.30;99.00
57242;DHT22;43095;53.302;5.786;2023-11-22T12:50:52;5.30;99.00
57242;DHT22;43095;53.302;5.786;2023-11-22T12:53:21;5.30;99.00
57242;DHT22;43095;53.302;5.786;2023-11-22T12:55:49;5.30;99.00
57242;DHT22;43095;53.302;5.786;2023-11-22T12:58:23;5.30;99.10
57242;DHT22;43095;53.302;5.786;2023-11-22T13:00:52;5.30;99.10
57242;DHT22;43095;53.302;5.786;2023-11-22T13:03:25;5.30;99.10
57242;DHT22;43095;53.302;5.786;2023-11-22T13:05:53;5.20;99.00
57242;DHT22;43095;53.302;5.786;2023-11-22T13:08:20;5.30;99.00
57242;DHT22;43095;53.302;5.786;2023-11-22T13:10:50;5.20;98.90
57242;DHT22;43095;53.302;5.786;2023-11-22T13:13:26;5.20;98.90
57242;DHT22;43095;53.302;5.786;2023-11-22T13:15:55;5.20;99.00
57242;DHT22;43095;53.302;5.786;2023-11-22T13:18:24;5.20;99.10
57242;DHT22;43095;53.302;5.786;2023-11-22T13:20:53;5.20;99.20
57242;DHT22;43095;53.302;5.786;2023-11-22T13:23:22;5.20;99.30
57242;DHT22;43095;53.302;5.786;2023-11-22T13:25:49;5.20;99.20
57242;DHT22;43095;53.302;5.786;2023-11-22T13:28:16;5.20;99.20
57242;DHT22;43095;53.302;5.786;2023-11-22T13:30:44;5.30;99.20
57242;DHT22;43095;53.302;5.786;2023-11-22T13:33:11;5.30;99.30
57242;DHT22;43095;53.302;5.786;2023-11-22T13:35:39;5.30;99.30
57242;DHT22;43095;53.302;5.786;2023-11-22T13:38:12;5.30;99.50
57242;DHT22;43095;53.302;5.786;2023-11-22T13:40:39;5.20;99.40
57242;DHT22;43095;53.302;5.786;2023-11-22T13:43:08;5.30;99.50
57242;DHT22;43095;53.302;5.786;2023-11-22T13:45:36;5.20;99.60
57242;DHT22;43095;53.302;5.786;2023-11-22T13:48:08;5.20;99.60
57242;DHT22;43095;53.302;5.786;2023-11-22T13:50:38;5.20;99.70
57242;DHT22;43095;53.302;5.786;2023-11-22T13:53:05;5.20;99.90
57242;DHT22;43095;53.302;5.786;2023-11-22T13:55:33;5.30;99.90
57242;DHT22;43095;53.302;5.786;2023-11-22T13:58:03;5.30;99.90
57242;DHT22;43095;53.302;5.786;2023-11-22T14:00:32;5.30;99.90
57242;DHT22;43095;53.302;5.786;2023-11-22T14:03:03;5.30;99.90
57242;DHT22;43095;53.302;5.786;2023-11-22T14:05:37;5.30;99.90
57242;DHT22;43095;53.302;5.786;2023-11-22T14:08:07;5.30;99.90
57242;DHT22;43095;53.302;5.786;2023-11-22T14:10:36;5.30;99.90
57242;DHT22;43095;53.302;5.786;2023-11-22T14:13:03;5.30;99.90
57242;DHT22;43095;53.302;5.786;2023-11-22T14:15:33;5.30;99.90
57242;DHT22;43095;53.302;5.786;2023-11-22T14:18:04;5.30;99.90
57242;DHT22;43095;53.302;5.786;2023-11-22T14:20:35;5.30;99.90
57242;DHT22;43095;53.302;5.786;2023-11-22T14:23:05;5.30;99.90
57242;DHT22;43095;53.302;5.786;2023-11-22T14:25:34;5.30;99.90
57242;DHT22;43095;53.302;5.786;2023-11-22T14:28:01;5.40;99.90
57242;DHT22;43095;53.302;5.786;2023-11-22T14:30:33;5.40;99.90
57242;DHT22;43095;53.302;5.786;2023-11-22T14:33:03;5.40;99.90
57242;DHT22;43095;53.302;5.786;2023-11-22T14:35:34;5.40;99.90
57242;DHT22;43095;53.302;5.786;2023-11-22T14:38:05;5.40;99.90
57242;DHT22;43095;53.302;5.786;2023-11-22T14:40:33;5.40;99.90
57242;DHT22;43095;53.302;5.786;2023-11-22T14:43:06;5.50;99.90
57242;DHT22;43095;53.302;5.786;2023-11-22T14:45:34;5.50;99.90
57242;DHT22;43095;53.302;5.786;2023-11-22T14:48:01;5.50;99.90
57242;DHT22;43095;53.302;5.786;2023-11-22T14:50:31;5.50;99.90
57242;DHT22;43095;53.302;5.786;2023-11-22T14:53:11;5.50;99.90
57242;DHT22;43095;53.302;5.786;2023-11-22T14:55:38;5.50;99.90
57242;DHT22;43095;53.302;5.786;2023-11-22T14:58:08;5.50;99.90
57242;DHT22;43095;53.302;5.786;2023-11-22T15:00:35;5.50;99.90
57242;DHT22;43095;53.302;5.786;2023-11-22T15:03:04;5.50;99.90
57242;DHT22;43095;53.302;5.786;2023-11-22T15:05:31;5.50;99.90
57242;DHT22;43095;53.302;5.786;2023-11-22T15:07:59;5.50;99.90
57242;DHT22;43095;53.302;5.786;2023-11-22T15:10:26;5.50;99.90
57242;DHT22;43095;53.302;5.786;2023-11-22T15:12:53;5.50;99.90
57242;DHT22;43095;53.302;5.786;2023-11-22T15:15:22;5.50;99.90
57242;DHT22;43095;53.302;5.786;2023-11-22T15:17:53;5.50;99.90
57242;DHT22;43095;53.302;5.786;2023-11-22T15:20:22;5.60;99.90
57242;DHT22;43095;53.302;5.786;2023-11-22T15:22:50;5.60;99.90
57242;DHT22;43095;53.302;5.786;2023-11-22T15:25:17;5.60;99.90
57242;DHT22;43095;53.302;5.786;2023-11-22T15:27:45;5.60;99.90
57242;DHT22;43095;53.302;5.786;2023-11-22T15:30:12;5.60;99.90
57242;DHT22;43095;53.302;5.786;2023-11-22T15:32:39;5.70;99.90
57242;DHT22;43095;53.302;5.786;2023-11-22T15:35:07;5.70;99.90
57242;DHT22;43095;53.302;5.786;2023-11-22T15:37:35;5.70;99.90
57242;DHT22;43095;53.302;5.786;2023-11-22T15:40:03;5.70;99.90
57242;DHT22;43095;53.302;5.786;2023-11-22T15:42:31;5.70;99.90
57242;DHT22;43095;53.302;5.786;2023-11-22T15:44:58;5.80;99.80
57242;DHT22;43095;53.302;5.786;2023-11-22T15:47:26;5.80;99.80
57242;DHT22;43095;53.302;5.786;2023-11-22T15:49:53;5.80;99.70
57242;DHT22;43095;53.302;5.786;2023-11-22T15:52:21;5.80;99.70
57242;DHT22;43095;53.302;5.786;2023-11-22T15:54:49;5.90;99.60
57242;DHT22;43095;53.302;5.786;2023-11-22T15:57:16;5.90;99.60
57242;DHT22;43095;53.302;5.786;2023-11-22T15:59:43;5.90;99.60
57242;DHT22;43095;53.302;5.786;2023-11-22T16:02:10;5.90;99.50
57242;DHT22;43095;53.302;5.786;2023-11-22T16:04:38;5.90;99.50
57242;DHT22;43095;53.302;5.786;2023-11-22T16:07:05;5.90;99.60
57242;DHT22;43095;53.302;5.786;2023-11-22T16:09:33;6.00;99.60
57242;DHT22;43095;53.302;5.786;2023-11-22T16:12:00;6.00;99.50
57242;DHT22;43095;53.302;5.786;2023-11-22T16:14:28;6.00;99.50
57242;DHT22;43095;53.302;5.786;2023-11-22T16:16:56;6.00;99.50
57242;DHT22;43095;53.302;5.786;2023-11-22T16:19:23;6.00;99.40
57242;DHT22;43095;53.302;5.786;2023-11-22T16:21:51;6.00;99.40
57242;DHT22;43095;53.302;5.786;2023-11-22T16:24:19;6.10;99.50
57242;DHT22;43095;53.302;5.786;2023-11-22T16:26:46;6.10;99.50
57242;DHT22;43095;53.302;5.786;2023-11-22T16:29:14;6.10;99.50
57242;DHT22;43095;53.302;5.786;2023-11-22T16:31:43;6.10;99.50
57242;DHT22;43095;53.302;5.786;2023-11-22T16:34:10;6.10;99.50
57242;DHT22;43095;53.302;5.786;2023-11-22T16:36:37;6.10;99.40
57242;DHT22;43095;53.302;5.786;2023-11-22T16:39:06;6.10;99.50
57242;DHT22;43095;53.302;5.786;2023-11-22T16:41:50;6.10;99.50
57242;DHT22;43095;53.302;5.786;2023-11-22T16:44:18;6.10;99.50
57242;DHT22;43095;53.302;5.786;2023-11-22T16:46:46;6.20;99.50
57242;DHT22;43095;53.302;5.786;2023-11-22T16:49:16;6.20;99.60
57242;DHT22;43095;53.302;5.786;2023-11-22T16:51:45;6.20;99.50
57242;DHT22;43095;53.302;5.786;2023-11-22T16:54:17;6.20;99.50
57242;DHT22;43095;53.302;5.786;2023-11-22T16:56:48;6.20;99.60
57242;DHT22;43095;53.302;5.786;2023-11-22T16:59:16;6.20;99.60
57242;DHT22;43095;53.302;5.786;2023-11-22T17:01:44;6.20;99.50
57242;DHT22;43095;53.302;5.786;2023-11-22T17:04:11;6.20;99.50
57242;DHT22;43095;53.302;5.786;2023-11-22T17:06:38;6.30;99.50
57242;DHT22;43095;53.302;5.786;2023-11-22T17:09:05;6.30;99.60
57242;DHT22;43095;53.302;5.786;2023-11-22T17:11:33;6.30;99.60
57242;DHT22;43095;53.302;5.786;2023-11-22T17:14:00;6.30;99.60
57242;DHT22;43095;53.302;5.786;2023-11-22T17:16:29;6.30;99.60
57242;DHT22;43095;53.302;5.786;2023-11-22T17:18:58;6.30;99.60